sensor_id;sensor_type;location;lat;lon;timestamp;pressure;altitude;pressure_sealevel;temperature;humidity
64362;BME280;50685;53.346;-6.296;2023-02-27T00:01:03;103306.44;;;6.74;71.82
64362;BME280;50685;53.346;-6.296;2023-02-27T00:03:31;103316.94;;;6.72;71.90
64362;BME280;50685;53.346;-6.296;2023-02-27T00:06:00;103309.03;;;6.72;71.66
64362;BME280;50685;53.346;-6.296;2023-02-27T00:08:26;103313.44;;;6.73;71.81
64362;BME280;50685;53.346;-6.296;2023-02-27T00:10:51;103305.69;;;6.77;71.39
64362;BME280;50685;53.346;-6.296;2023-02-27T00:13:17;103317.97;;;6.76;71.67
64362;BME280;50685;53.346;-6.296;2023-02-27T00:15:47;103311.78;;;6.75;70.51
64362;BME280;50685;53.346;-6.296;2023-02-27T00:18:14;103311.84;;;6.77;68.83
64362;BME280;50685;53.346;-6.296;2023-02-27T00:23:14;103326.06;;;6.81;68.14
64362;BME280;50685;53.346;-6.296;2023-02-27T00:25:40;103321.78;;;6.83;68.41
64362;BME280;50685;53.346;-6.296;2023-02-27T00:28:05;103324.47;;;6.84;68.12
64362;BME280;50685;53.346;-6.296;2023-02-27T00:30:31;103319.97;;;6.82;68.09
64362;BME280;50685;53.346;-6.296;2023-02-27T00:35:26;103318.16;;;6.81;67.87
64362;BME280;50685;53.346;-6.296;2023-02-27T00:37:55;103322.47;;;6.79;68.13
64362;BME280;50685;53.346;-6.296;2023-02-27T00:40:33;103318.94;;;6.78;67.83
64362;BME280;50685;53.346;-6.296;2023-02-27T00:43:02;103320.72;;;6.79;67.59
64362;BME280;50685;53.346;-6.296;2023-02-27T00:45:27;103310.13;;;6.78;67.66
64362;BME280;50685;53.346;-6.296;2023-02-27T00:47:53;103320.72;;;6.79;67.93
64362;BME280;50685;53.346;-6.296;2023-02-27T00:50:18;103307.53;;;6.79;68.39
64362;BME280;50685;53.346;-6.296;2023-02-27T00:52:43;103313.75;;;6.80;68.59
64362;BME280;50685;53.346;-6.296;2023-02-27T00:55:09;103303.09;;;6.78;68.79
64362;BME280;50685;53.346;-6.296;2023-02-27T00:57:34;103311.84;;;6.77;69.42
64362;BME280;50685;53.346;-6.296;2023-02-27T01:02:29;103307.53;;;6.79;69.34
64362;BME280;50685;53.346;-6.296;2023-02-27T01:04:55;103318.81;;;6.75;68.49
64362;BME280;50685;53.346;-6.296;2023-02-27T01:07:20;103319.63;;;6.74;68.85
64362;BME280;50685;53.346;-6.296;2023-02-27T01:12:21;103317.88;;;6.74;68.99
64362;BME280;50685;53.346;-6.296;2023-02-27T01:17:21;103317.75;;;6.71;68.49
64362;BME280;50685;53.346;-6.296;2023-02-27T01:22:19;103335.97;;;6.65;69.01
64362;BME280;50685;53.346;-6.296;2023-02-27T02:02:20;103338.81;;;5.94;70.96
64362;BME280;50685;53.346;-6.296;2023-02-27T02:11:28;103339.88;;;5.98;71.25
64362;BME280;50685;53.346;-6.296;2023-02-27T02:32:39;103337.09;;;6.13;71.62
64362;BME280;50685;53.346;-6.296;2023-02-27T03:19:46;103320.09;;;6.06;73.36
64362;BME280;50685;53.346;-6.296;2023-02-27T03:22:12;103311.44;;;6.09;73.42
64362;BME280;50685;53.346;-6.296;2023-02-27T03:24:58;103322.03;;;6.10;73.34
64362;BME280;50685;53.346;-6.296;2023-02-27T03:27:29;103329.00;;;6.08;73.27
64362;BME280;50685;53.346;-6.296;2023-02-27T03:29:57;103323.72;;;6.08;73.13
64362;BME280;50685;53.346;-6.296;2023-02-27T03:32:39;103334.34;;;6.10;72.86
64362;BME280;50685;53.346;-6.296;2023-02-27T03:35:09;103344.94;;;6.11;72.54
64362;BME280;50685;53.346;-6.296;2023-02-27T03:37:52;103339.81;;;6.15;72.09
64362;BME280;50685;53.346;-6.296;2023-02-27T03:49:07;103336.31;;;6.16;68.25
64362;BME280;50685;53.346;-6.296;2023-02-27T03:54:12;103347.56;;;6.11;65.92
64362;BME280;50685;53.346;-6.296;2023-02-27T03:59:24;103346.28;;;6.03;64.79
64362;BME280;50685;53.346;-6.296;2023-02-27T04:01:54;103342.72;;;6.01;63.99
64362;BME280;50685;53.346;-6.296;2023-02-27T04:04:21;103352.91;;;5.95;63.24
64362;BME280;50685;53.346;-6.296;2023-02-27T04:06:50;103337.88;;;5.92;64.01
64362;BME280;50685;53.346;-6.296;2023-02-27T04:17:51;103333.81;;;5.81;62.92
64362;BME280;50685;53.346;-6.296;2023-02-27T04:20:34;103336.38;;;5.79;63.73
64362;BME280;50685;53.346;-6.296;2023-02-27T04:23:06;103340.75;;;5.79;64.62
64362;BME280;50685;53.346;-6.296;2023-02-27T04:25:42;103330.06;;;5.76;65.14
64362;BME280;50685;53.346;-6.296;2023-02-27T04:28:16;103329.16;;;5.75;65.56
64362;BME280;50685;53.346;-6.296;2023-02-27T04:33:09;103334.13;;;5.69;65.94
64362;BME280;50685;53.346;-6.296;2023-02-27T04:38:17;103354.91;;;5.63;66.84
64362;BME280;50685;53.346;-6.296;2023-02-27T04:41:24;103351.22;;;5.59;66.68
64362;BME280;50685;53.346;-6.296;2023-02-27T04:43:46;103351.97;;;5.57;66.65
64362;BME280;50685;53.346;-6.296;2023-02-27T04:46:15;103353.75;;;5.58;66.78
64362;BME280;50685;53.346;-6.296;2023-02-27T04:51:14;103354.59;;;5.57;66.55
64362;BME280;50685;53.346;-6.296;2023-02-27T04:53:45;103352.84;;;5.57;66.29
64362;BME280;50685;53.346;-6.296;2023-02-27T04:56:15;103355.41;;;5.56;65.92
64362;BME280;50685;53.346;-6.296;2023-02-27T04:58:49;103357.88;;;5.53;65.78
64362;BME280;50685;53.346;-6.296;2023-02-27T05:01:28;103355.13;;;5.50;66.11
64362;BME280;50685;53.346;-6.296;2023-02-27T05:03:55;103355.00;;;5.48;66.44
64362;BME280;50685;53.346;-6.296;2023-02-27T05:09:04;103352.69;;;5.54;67.12
64362;BME280;50685;53.346;-6.296;2023-02-27T05:11:38;103362.56;;;5.58;67.42
64362;BME280;50685;53.346;-6.296;2023-02-27T05:14:11;103363.63;;;5.62;67.89
64362;BME280;50685;53.346;-6.296;2023-02-27T05:16:42;103361.94;;;5.64;67.94
64362;BME280;50685;53.346;-6.296;2023-02-27T05:19:09;103366.38;;;5.65;67.21
64362;BME280;50685;53.346;-6.296;2023-02-27T05:29:14;103369.41;;;5.73;65.89
64362;BME280;50685;53.346;-6.296;2023-02-27T05:31:51;103379.19;;;5.75;65.65
64362;BME280;50685;53.346;-6.296;2023-02-27T05:34:20;103365.28;;;5.78;65.56
64362;BME280;50685;53.346;-6.296;2023-02-27T05:36:51;103360.88;;;5.78;65.29
64362;BME280;50685;53.346;-6.296;2023-02-27T05:39:18;103353.91;;;5.79;65.35
64362;BME280;50685;53.346;-6.296;2023-02-27T05:41:54;103360.06;;;5.79;65.44
64362;BME280;50685;53.346;-6.296;2023-02-27T05:44:27;103356.75;;;5.84;65.41
64362;BME280;50685;53.346;-6.296;2023-02-27T05:46:55;103364.56;;;5.82;65.63
64362;BME280;50685;53.346;-6.296;2023-02-27T05:49:30;103363.69;;;5.82;65.38
64362;BME280;50685;53.346;-6.296;2023-02-27T05:51:59;103360.13;;;5.81;64.77
64362;BME280;50685;53.346;-6.296;2023-02-27T05:54:40;103360.13;;;5.81;64.89
64362;BME280;50685;53.346;-6.296;2023-02-27T05:57:07;103360.06;;;5.79;64.64
64362;BME280;50685;53.346;-6.296;2023-02-27T05:59:42;103353.06;;;5.80;64.44
64362;BME280;50685;53.346;-6.296;2023-02-27T06:02:11;103357.44;;;5.79;64.59
64362;BME280;50685;53.346;-6.296;2023-02-27T06:04:40;103348.78;;;5.82;64.49
64362;BME280;50685;53.346;-6.296;2023-02-27T06:07:05;103344.44;;;5.83;64.45
64362;BME280;50685;53.346;-6.296;2023-02-27T06:09:31;103350.59;;;5.83;64.11
64362;BME280;50685;53.346;-6.296;2023-02-27T06:11:57;103355.03;;;5.84;64.24
64362;BME280;50685;53.346;-6.296;2023-02-27T06:14:24;103348.13;;;5.86;64.27
64362;BME280;50685;53.346;-6.296;2023-02-27T06:16:49;103348.13;;;5.86;64.11
64362;BME280;50685;53.346;-6.296;2023-02-27T06:19:15;103349.91;;;5.87;64.40
64362;BME280;50685;53.346;-6.296;2023-02-27T06:21:40;103346.44;;;5.88;64.50
64362;BME280;50685;53.346;-6.296;2023-02-27T06:24:06;103343.81;;;5.88;64.43
64362;BME280;50685;53.346;-6.296;2023-02-27T06:26:31;103338.59;;;5.90;64.70
64362;BME280;50685;53.346;-6.296;2023-02-27T06:28:57;103335.13;;;5.91;65.03
64362;BME280;50685;53.346;-6.296;2023-02-27T06:31:22;103335.13;;;5.91;65.17
64362;BME280;50685;53.346;-6.296;2023-02-27T06:33:48;103343.97;;;5.91;65.03
64362;BME280;50685;53.346;-6.296;2023-02-27T06:36:13;103334.84;;;5.85;64.85
64362;BME280;50685;53.346;-6.296;2023-02-27T06:38:39;103343.22;;;5.94;65.07
64362;BME280;50685;53.346;-6.296;2023-02-27T06:41:07;103345.03;;;5.95;64.67
64362;BME280;50685;53.346;-6.296;2023-02-27T06:43:32;103340.69;;;5.97;64.74
64362;BME280;50685;53.346;-6.296;2023-02-27T06:46:00;103345.09;;;5.97;65.02
64362;BME280;50685;53.346;-6.296;2023-02-27T06:48:30;103350.41;;;5.98;65.10
64362;BME280;50685;53.346;-6.296;2023-02-27T06:50:56;103354.00;;;5.99;65.41
64362;BME280;50685;53.346;-6.296;2023-02-27T06:53:22;103349.63;;;5.99;65.71
64362;BME280;50685;53.346;-6.296;2023-02-27T06:55:47;103356.63;;;5.99;65.84
64362;BME280;50685;53.346;-6.296;2023-02-27T06:58:13;103357.59;;;6.01;65.84
64362;BME280;50685;53.346;-6.296;2023-02-27T07:00:39;103363.69;;;6.00;66.20
64362;BME280;50685;53.346;-6.296;2023-02-27T07:03:04;103362.03;;;6.02;65.64
64362;BME280;50685;53.346;-6.296;2023-02-27T07:05:33;103361.22;;;6.03;65.54
64362;BME280;50685;53.346;-6.296;2023-02-27T07:07:58;103366.41;;;6.01;65.39
64362;BME280;50685;53.346;-6.296;2023-02-27T07:10:24;103368.22;;;6.02;65.74
64362;BME280;50685;53.346;-6.296;2023-02-27T07:12:51;103364.66;;;6.02;66.12
64362;BME280;50685;53.346;-6.296;2023-02-27T07:15:52;103372.56;;;6.02;66.54
64362;BME280;50685;53.346;-6.296;2023-02-27T07:18:21;103376.94;;;6.01;66.71
64362;BME280;50685;53.346;-6.296;2023-02-27T07:20:56;103369.94;;;6.02;66.93
64362;BME280;50685;53.346;-6.296;2023-02-27T07:23:21;103368.34;;;6.05;66.53
64362;BME280;50685;53.346;-6.296;2023-02-27T07:25:47;103370.94;;;6.04;66.80
64362;BME280;50685;53.346;-6.296;2023-02-27T07:28:13;103371.88;;;6.06;66.97
64362;BME280;50685;53.346;-6.296;2023-02-27T07:30:39;103366.72;;;6.07;66.84
64362;BME280;50685;53.346;-6.296;2023-02-27T07:33:05;103370.22;;;6.08;66.76
64362;BME280;50685;53.346;-6.296;2023-02-27T07:35:31;103372.88;;;6.08;67.08
64362;BME280;50685;53.346;-6.296;2023-02-27T07:37:56;103384.31;;;6.08;67.54
64362;BME280;50685;53.346;-6.296;2023-02-27T07:40:21;103380.78;;;6.08;67.50
64362;BME280;50685;53.346;-6.296;2023-02-27T07:42:47;103375.28;;;6.03;67.97
64362;BME280;50685;53.346;-6.296;2023-02-27T07:45:12;103388.75;;;6.09;67.92
64362;BME280;50685;53.346;-6.296;2023-02-27T07:47:39;103396.63;;;6.09;68.32
64362;BME280;50685;53.346;-6.296;2023-02-27T07:50:04;103389.72;;;6.11;68.34
64362;BME280;50685;53.346;-6.296;2023-02-27T07:52:30;103392.34;;;6.11;68.33
64362;BME280;50685;53.346;-6.296;2023-02-27T07:54:55;103391.47;;;6.11;67.87
64362;BME280;50685;53.346;-6.296;2023-02-27T07:57:20;103400.19;;;6.10;66.83
64362;BME280;50685;53.346;-6.296;2023-02-27T07:59:46;103394.94;;;6.10;66.80
64362;BME280;50685;53.346;-6.296;2023-02-27T08:02:12;103398.56;;;6.12;66.58
64362;BME280;50685;53.346;-6.296;2023-02-27T08:04:38;103403.72;;;6.10;66.19
64362;BME280;50685;53.346;-6.296;2023-02-27T08:07:03;103402.00;;;6.11;66.27
64362;BME280;50685;53.346;-6.296;2023-02-27T08:09:29;103413.50;;;6.13;65.85
64362;BME280;50685;53.346;-6.296;2023-02-27T08:11:55;103403.94;;;6.15;65.92
64362;BME280;50685;53.346;-6.296;2023-02-27T08:14:21;103403.59;;;6.07;65.66
64362;BME280;50685;53.346;-6.296;2023-02-27T08:16:46;103411.78;;;6.14;65.65
64362;BME280;50685;53.346;-6.296;2023-02-27T08:19:12;103413.44;;;6.11;65.80
64362;BME280;50685;53.346;-6.296;2023-02-27T08:21:38;103403.72;;;6.10;65.92
64362;BME280;50685;53.346;-6.296;2023-02-27T08:24:03;103407.19;;;6.09;66.44
64362;BME280;50685;53.346;-6.296;2023-02-27T08:26:28;103415.09;;;6.09;66.28
64362;BME280;50685;53.346;-6.296;2023-02-27T08:28:55;103421.41;;;6.13;66.15
64362;BME280;50685;53.346;-6.296;2023-02-27T08:31:20;103415.00;;;6.08;66.15
64362;BME280;50685;53.346;-6.296;2023-02-27T08:33:45;103430.22;;;6.14;66.04
64362;BME280;50685;53.346;-6.296;2023-02-27T08:36:11;103419.75;;;6.15;65.72
64362;BME280;50685;53.346;-6.296;2023-02-27T08:38:36;103425.09;;;6.17;64.95
64362;BME280;50685;53.346;-6.296;2023-02-27T08:41:02;103419.00;;;6.18;64.59
64362;BME280;50685;53.346;-6.296;2023-02-27T08:43:27;103433.09;;;6.18;64.48
64362;BME280;50685;53.346;-6.296;2023-02-27T08:45:52;103430.47;;;6.18;64.43
64362;BME280;50685;53.346;-6.296;2023-02-27T08:48:18;103427.06;;;6.21;64.27
64362;BME280;50685;53.346;-6.296;2023-02-27T08:50:43;103432.41;;;6.22;63.94
64362;BME280;50685;53.346;-6.296;2023-02-27T08:53:12;103433.28;;;6.23;63.90
64362;BME280;50685;53.346;-6.296;2023-02-27T08:55:37;103429.59;;;6.19;64.89
64362;BME280;50685;53.346;-6.296;2023-02-27T08:58:03;103432.25;;;6.19;65.15
64362;BME280;50685;53.346;-6.296;2023-02-27T09:00:28;103448.97;;;6.20;65.38
64362;BME280;50685;53.346;-6.296;2023-02-27T09:02:55;103444.38;;;6.16;65.60
64362;BME280;50685;53.346;-6.296;2023-02-27T09:05:21;103442.47;;;6.13;65.13
64362;BME280;50685;53.346;-6.296;2023-02-27T09:07:47;103446.88;;;6.13;64.66
64362;BME280;50685;53.346;-6.296;2023-02-27T09:10:12;103445.28;;;6.16;64.32
64362;BME280;50685;53.346;-6.296;2023-02-27T09:12:38;103443.53;;;6.17;64.05
64362;BME280;50685;53.346;-6.296;2023-02-27T09:15:04;103459.34;;;6.17;63.89
64362;BME280;50685;53.346;-6.296;2023-02-27T09:17:30;103455.88;;;6.18;63.34
64362;BME280;50685;53.346;-6.296;2023-02-27T09:19:55;103456.06;;;6.21;62.75
64362;BME280;50685;53.346;-6.296;2023-02-27T09:22:21;103462.22;;;6.21;61.84
64362;BME280;50685;53.346;-6.296;2023-02-27T09:24:47;103466.59;;;6.21;61.61
64362;BME280;50685;53.346;-6.296;2023-02-27T09:27:13;103469.44;;;6.25;61.82
64362;BME280;50685;53.346;-6.296;2023-02-27T09:29:39;103469.53;;;6.27;61.77
64362;BME280;50685;53.346;-6.296;2023-02-27T09:32:04;103472.28;;;6.30;62.18
64362;BME280;50685;53.346;-6.296;2023-02-27T09:34:29;103473.34;;;6.34;61.94
64362;BME280;50685;53.346;-6.296;2023-02-27T09:36:57;103463.91;;;6.39;62.10
64362;BME280;50685;53.346;-6.296;2023-02-27T09:39:26;103474.56;;;6.40;62.42
64362;BME280;50685;53.346;-6.296;2023-02-27T09:41:59;103471.06;;;6.41;62.54
64362;BME280;50685;53.346;-6.296;2023-02-27T09:46:52;103472.63;;;6.56;62.53
64362;BME280;50685;53.346;-6.296;2023-02-27T09:49:18;103470.56;;;6.68;62.23
64362;BME280;50685;53.346;-6.296;2023-02-27T09:51:45;103459.97;;;6.86;60.96
64362;BME280;50685;53.346;-6.296;2023-02-27T09:54:11;103467.63;;;7.00;60.36
64362;BME280;50685;53.346;-6.296;2023-02-27T09:56:47;103464.44;;;7.07;59.73
64362;BME280;50685;53.346;-6.296;2023-02-27T10:04:38;103464.63;;;7.31;59.12
64362;BME280;50685;53.346;-6.296;2023-02-27T10:12:35;103478.56;;;7.09;63.68
64362;BME280;50685;53.346;-6.296;2023-02-27T10:15:14;103482.13;;;7.10;64.79
64362;BME280;50685;53.346;-6.296;2023-02-27T10:17:42;103483.56;;;7.22;65.72
64362;BME280;50685;53.346;-6.296;2023-02-27T10:22:52;103484.06;;;7.33;66.44
64362;BME280;50685;53.346;-6.296;2023-02-27T10:25:19;103480.94;;;7.22;66.49
64362;BME280;50685;53.346;-6.296;2023-02-27T10:27:47;103488.25;;;7.08;67.84
64362;BME280;50685;53.346;-6.296;2023-02-27T10:30:22;103492.97;;;6.96;68.82
64362;BME280;50685;53.346;-6.296;2023-02-27T10:32:49;103485.09;;;6.98;68.78
64362;BME280;50685;53.346;-6.296;2023-02-27T10:37:51;103484.69;;;6.88;70.81
64362;BME280;50685;53.346;-6.296;2023-02-27T10:40:18;103474.91;;;6.86;70.09
64362;BME280;50685;53.346;-6.296;2023-02-27T10:42:45;103491.56;;;6.85;70.23
64362;BME280;50685;53.346;-6.296;2023-02-27T10:45:12;103444.75;;;6.81;70.00
64362;BME280;50685;53.346;-6.296;2023-02-27T10:47:39;103488.13;;;7.05;70.50
64362;BME280;50685;53.346;-6.296;2023-02-27T10:50:18;103484.34;;;7.00;70.52
64362;BME280;50685;53.346;-6.296;2023-02-27T10:52:51;103486.22;;;7.03;70.00
64362;BME280;50685;53.346;-6.296;2023-02-27T10:55:21;103501.31;;;7.05;70.30
64362;BME280;50685;53.346;-6.296;2023-02-27T10:57:47;103499.00;;;7.13;69.99
64362;BME280;50685;53.346;-6.296;2023-02-27T11:02:59;103494.56;;;7.32;69.53
64362;BME280;50685;53.346;-6.296;2023-02-27T11:07:50;103495.88;;;7.22;68.95
64362;BME280;50685;53.346;-6.296;2023-02-27T11:10:17;103494.22;;;7.04;68.88
64362;BME280;50685;53.346;-6.296;2023-02-27T11:13:02;103505.38;;;6.99;69.35
64362;BME280;50685;53.346;-6.296;2023-02-27T11:15:29;103497.19;;;7.12;69.31
64362;BME280;50685;53.346;-6.296;2023-02-27T11:17:55;103502.31;;;7.29;69.06
64362;BME280;50685;53.346;-6.296;2023-02-27T11:20:40;103488.06;;;7.45;68.32
64362;BME280;50685;53.346;-6.296;2023-02-27T11:25:35;103506.78;;;7.30;67.06
64362;BME280;50685;53.346;-6.296;2023-02-27T11:30:45;103495.16;;;7.26;67.15
64362;BME280;50685;53.346;-6.296;2023-02-27T11:33:19;103490.31;;;7.35;66.08
64362;BME280;50685;53.346;-6.296;2023-02-27T11:35:49;103492.59;;;7.47;64.93
64362;BME280;50685;53.346;-6.296;2023-02-27T11:38:16;103487.34;;;7.68;64.66
64362;BME280;50685;53.346;-6.296;2023-02-27T11:40:53;103484.56;;;7.86;64.56
64362;BME280;50685;53.346;-6.296;2023-02-27T11:43:23;103488.38;;;7.93;64.43
64362;BME280;50685;53.346;-6.296;2023-02-27T11:45:51;103492.88;;;7.96;65.55
64362;BME280;50685;53.346;-6.296;2023-02-27T11:48:19;103497.38;;;8.19;64.44
64362;BME280;50685;53.346;-6.296;2023-02-27T11:55:53;103494.13;;;8.48;65.69
64362;BME280;50685;53.346;-6.296;2023-02-27T11:58:21;103489.59;;;8.45;64.61
64362;BME280;50685;53.346;-6.296;2023-02-27T12:01:00;103479.78;;;8.43;64.05
64362;BME280;50685;53.346;-6.296;2023-02-27T12:03:46;103484.28;;;8.45;63.75
64362;BME280;50685;53.346;-6.296;2023-02-27T12:06:50;103472.78;;;8.43;63.87
64362;BME280;50685;53.346;-6.296;2023-02-27T12:09:15;103489.13;;;8.12;64.54
64362;BME280;50685;53.346;-6.296;2023-02-27T12:11:43;103483.41;;;7.80;66.48
64362;BME280;50685;53.346;-6.296;2023-02-27T12:14:17;103486.81;;;7.56;68.87
64362;BME280;50685;53.346;-6.296;2023-02-27T12:16:46;103480.28;;;7.48;70.44
64362;BME280;50685;53.346;-6.296;2023-02-27T12:21:41;103472.72;;;7.36;70.03
64362;BME280;50685;53.346;-6.296;2023-02-27T12:26:41;103475.09;;;7.10;72.16
64362;BME280;50685;53.346;-6.296;2023-02-27T12:29:28;103475.09;;;7.10;72.17
64362;BME280;50685;53.346;-6.296;2023-02-27T12:32:08;103471.50;;;7.28;72.21
64362;BME280;50685;53.346;-6.296;2023-02-27T12:34:41;103471.81;;;7.55;73.05
64362;BME280;50685;53.346;-6.296;2023-02-27T12:37:11;103468.66;;;7.64;71.35
64362;BME280;50685;53.346;-6.296;2023-02-27T12:39:37;103469.69;;;7.67;70.46
64362;BME280;50685;53.346;-6.296;2023-02-27T12:50:05;103468.66;;;7.85;67.60
64362;BME280;50685;53.346;-6.296;2023-02-27T12:52:56;103463.63;;;7.91;67.98
64362;BME280;50685;53.346;-6.296;2023-02-27T12:55:24;103470.91;;;7.97;65.85
64362;BME280;50685;53.346;-6.296;2023-02-27T13:00:19;103464.13;;;8.25;65.71
64362;BME280;50685;53.346;-6.296;2023-02-27T13:02:48;103465.00;;;8.25;61.19
64362;BME280;50685;53.346;-6.296;2023-02-27T13:08:15;103469.16;;;7.97;64.80
64362;BME280;50685;53.346;-6.296;2023-02-27T13:13:19;103462.91;;;7.74;66.77
64362;BME280;50685;53.346;-6.296;2023-02-27T13:15:50;103460.66;;;7.62;67.21
64362;BME280;50685;53.346;-6.296;2023-02-27T13:18:36;103470.19;;;7.59;68.10
64362;BME280;50685;53.346;-6.296;2023-02-27T13:21:11;103457.25;;;7.44;67.19
64362;BME280;50685;53.346;-6.296;2023-02-27T13:26:23;103450.41;;;7.49;68.30
64362;BME280;50685;53.346;-6.296;2023-02-27T13:51:50;103478.28;;;7.42;70.43
64362;BME280;50685;53.346;-6.296;2023-02-27T14:06:30;103479.63;;;7.13;74.65
64362;BME280;50685;53.346;-6.296;2023-02-27T14:08:56;103474.22;;;7.10;74.06
64362;BME280;50685;53.346;-6.296;2023-02-27T14:11:28;103474.59;;;7.19;73.63
64362;BME280;50685;53.346;-6.296;2023-02-27T14:21:58;103464.16;;;7.01;73.60
64362;BME280;50685;53.346;-6.296;2023-02-27T14:24:34;103466.28;;;6.90;73.95
64362;BME280;50685;53.346;-6.296;2023-02-27T14:27:03;103461.03;;;6.90;74.21
64362;BME280;50685;53.346;-6.296;2023-02-27T14:29:30;103460.88;;;7.06;73.67
64362;BME280;50685;53.346;-6.296;2023-02-27T14:31:58;103458.63;;;7.35;72.57
64362;BME280;50685;53.346;-6.296;2023-02-27T14:34:24;103452.47;;;7.77;71.61
64362;BME280;50685;53.346;-6.296;2023-02-27T14:36:51;103452.50;;;8.21;70.83
64362;BME280;50685;53.346;-6.296;2023-02-27T14:39:21;103448.16;;;8.91;67.72
64362;BME280;50685;53.346;-6.296;2023-02-27T14:41:52;103444.84;;;9.47;65.38
64362;BME280;50685;53.346;-6.296;2023-02-27T14:44:26;103446.59;;;9.72;63.27
64362;BME280;50685;53.346;-6.296;2023-02-27T14:46:55;103452.69;;;9.97;63.17
64362;BME280;50685;53.346;-6.296;2023-02-27T14:49:32;103451.84;;;9.98;60.38
64362;BME280;50685;53.346;-6.296;2023-02-27T14:54:36;103448.25;;;9.19;60.94
64362;BME280;50685;53.346;-6.296;2023-02-27T14:57:02;103447.03;;;9.09;62.62
64362;BME280;50685;53.346;-6.296;2023-02-27T14:59:29;103445.56;;;8.93;62.07
64362;BME280;50685;53.346;-6.296;2023-02-27T15:01:56;103447.91;;;8.61;61.98
64362;BME280;50685;53.346;-6.296;2023-02-27T15:04:22;103438.25;;;8.40;63.21
64362;BME280;50685;53.346;-6.296;2023-02-27T15:06:50;103437.03;;;8.32;64.15
64362;BME280;50685;53.346;-6.296;2023-02-27T15:09:23;103441.75;;;8.16;63.73
64362;BME280;50685;53.346;-6.296;2023-02-27T15:11:51;103437.47;;;8.20;66.19
64362;BME280;50685;53.346;-6.296;2023-02-27T15:14:20;103441.69;;;8.15;64.71
64362;BME280;50685;53.346;-6.296;2023-02-27T15:16:51;103434.47;;;8.11;64.10
64362;BME280;50685;53.346;-6.296;2023-02-27T15:19:21;103443.69;;;7.99;61.63
64362;BME280;50685;53.346;-6.296;2023-02-27T15:21:51;103440.81;;;7.93;61.32
64362;BME280;50685;53.346;-6.296;2023-02-27T15:24:27;103438.06;;;8.13;61.05
64362;BME280;50685;53.346;-6.296;2023-02-27T15:26:54;103437.84;;;8.29;60.95
64362;BME280;50685;53.346;-6.296;2023-02-27T15:29:21;103442.97;;;8.25;59.56
64362;BME280;50685;53.346;-6.296;2023-02-27T15:31:47;103438.91;;;8.12;58.65
64362;BME280;50685;53.346;-6.296;2023-02-27T15:34:13;103445.88;;;8.10;59.01
64362;BME280;50685;53.346;-6.296;2023-02-27T15:36:40;103439.16;;;8.18;58.86
64362;BME280;50685;53.346;-6.296;2023-02-27T15:41:40;103434.50;;;8.33;59.37
64362;BME280;50685;53.346;-6.296;2023-02-27T15:44:06;103438.22;;;8.39;59.75
64362;BME280;50685;53.346;-6.296;2023-02-27T15:46:32;103433.50;;;8.31;60.04
64362;BME280;50685;53.346;-6.296;2023-02-27T15:48:57;103441.31;;;8.28;60.94
64362;BME280;50685;53.346;-6.296;2023-02-27T15:51:24;103442.78;;;8.20;60.57
64362;BME280;50685;53.346;-6.296;2023-02-27T15:53:53;103432.78;;;8.13;61.23
64362;BME280;50685;53.346;-6.296;2023-02-27T15:56:24;103440.16;;;7.99;61.77
64362;BME280;50685;53.346;-6.296;2023-02-27T15:58:50;103434.09;;;8.01;62.45
64362;BME280;50685;53.346;-6.296;2023-02-27T16:01:24;103438.66;;;8.06;62.33
64362;BME280;50685;53.346;-6.296;2023-02-27T16:03:55;103434.81;;;7.97;61.75
64362;BME280;50685;53.346;-6.296;2023-02-27T16:06:22;103431.31;;;7.98;62.44
64362;BME280;50685;53.346;-6.296;2023-02-27T16:11:24;103442.66;;;7.96;61.40
64362;BME280;50685;53.346;-6.296;2023-02-27T16:14:01;103444.19;;;7.89;62.16
64362;BME280;50685;53.346;-6.296;2023-02-27T16:19:00;103449.44;;;7.68;62.65
64362;BME280;50685;53.346;-6.296;2023-02-27T16:21:28;103445.34;;;7.53;63.45
64362;BME280;50685;53.346;-6.296;2023-02-27T16:24:17;103435.66;;;7.54;63.78
64362;BME280;50685;53.346;-6.296;2023-02-27T16:26:46;103442.97;;;7.60;64.04
64362;BME280;50685;53.346;-6.296;2023-02-27T16:29:16;103440.38;;;7.61;63.99
64362;BME280;50685;53.346;-6.296;2023-02-27T16:31:46;103436.94;;;7.64;64.43
64362;BME280;50685;53.346;-6.296;2023-02-27T16:36:54;103437.47;;;7.55;64.07
64362;BME280;50685;53.346;-6.296;2023-02-27T16:39:21;103433.91;;;7.54;64.12
64362;BME280;50685;53.346;-6.296;2023-02-27T16:41:46;103433.66;;;7.48;64.33
64362;BME280;50685;53.346;-6.296;2023-02-27T16:44:16;103439.59;;;7.43;64.97
64362;BME280;50685;53.346;-6.296;2023-02-27T16:46:43;103433.06;;;7.34;65.33
64362;BME280;50685;53.346;-6.296;2023-02-27T16:49:17;103433.28;;;7.39;65.77
64362;BME280;50685;53.346;-6.296;2023-02-27T16:56:59;103436.75;;;7.38;66.14
64362;BME280;50685;53.346;-6.296;2023-02-27T16:59:31;103440.00;;;7.32;66.66
64362;BME280;50685;53.346;-6.296;2023-02-27T17:04:35;103435.28;;;7.25;66.95
64362;BME280;50685;53.346;-6.296;2023-02-27T17:07:01;103443.03;;;7.20;66.86
64362;BME280;50685;53.346;-6.296;2023-02-27T17:09:28;103445.56;;;7.19;66.91
64362;BME280;50685;53.346;-6.296;2023-02-27T17:12:00;103439.28;;;7.15;66.18
64362;BME280;50685;53.346;-6.296;2023-02-27T17:14:25;103437.53;;;7.16;65.51
64362;BME280;50685;53.346;-6.296;2023-02-27T17:16:51;103442.75;;;7.14;64.55
64362;BME280;50685;53.346;-6.296;2023-02-27T17:19:18;103443.66;;;7.15;64.02
64362;BME280;50685;53.346;-6.296;2023-02-27T17:21:45;103440.63;;;7.05;62.94
64362;BME280;50685;53.346;-6.296;2023-02-27T17:24:10;103436.06;;;7.03;61.59
64362;BME280;50685;53.346;-6.296;2023-02-27T17:26:36;103442.22;;;7.02;61.68
64362;BME280;50685;53.346;-6.296;2023-02-27T17:29:06;103437.00;;;7.03;60.07
64362;BME280;50685;53.346;-6.296;2023-02-27T17:31:33;103440.63;;;7.05;59.63
64362;BME280;50685;53.346;-6.296;2023-02-27T17:33:59;103423.75;;;7.02;59.90
64362;BME280;50685;53.346;-6.296;2023-02-27T17:36:27;103426.38;;;7.02;59.63
64362;BME280;50685;53.346;-6.296;2023-02-27T17:38:53;103429.03;;;7.02;59.67
64362;BME280;50685;53.346;-6.296;2023-02-27T17:41:18;103430.81;;;7.03;60.15
64362;BME280;50685;53.346;-6.296;2023-02-27T17:43:48;103431.84;;;7.06;60.53